createdAt,value
2019-01-10T00:04:47.145Z,15.83
2019-01-10T00:09:48.688Z,16.00
2019-01-10T00:14:50.272Z,11.93
2019-01-10T00:19:53.644Z,28.27
2019-01-10T00:24:55.210Z,12.37
2019-01-10T00:29:56.780Z,17.50
2019-01-10T00:34:58.358Z,23.37
2019-01-10T00:39:59.842Z,22.47
2019-01-10T00:45:01.404Z,22.53
2019-01-10T00:50:04.039Z,15.40
2019-01-10T00:55:05.947Z,17.60
2019-01-10T01:00:16.186Z,16.27
2019-01-10T01:05:17.745Z,16.93
2019-01-10T01:10:21.603Z,23.77
2019-01-10T01:15:23.140Z,12.10
2019-01-10T01:20:24.751Z,15.00
2019-01-10T01:25:26.666Z,13.87
2019-01-10T01:30:28.597Z,21.20
2019-01-10T01:35:31.934Z,12.93
2019-01-10T01:40:33.888Z,14.30
2019-01-10T01:45:35.470Z,12.40
2019-01-10T01:50:37.020Z,16.40
2019-01-10T01:55:38.846Z,14.27
2019-01-10T02:00:40.392Z,19.20
2019-01-10T02:05:41.932Z,14.77
2019-01-10T02:10:43.506Z,12.60
2019-01-10T02:15:45.000Z,21.93
2019-01-10T02:20:46.567Z,24.07
2019-01-10T02:25:48.548Z,20.33
2019-01-10T02:30:50.117Z,16.37
2019-01-10T02:35:51.689Z,14.90
2019-01-10T02:40:53.266Z,18.63
2019-01-10T02:45:54.806Z,12.77
2019-01-10T02:50:56.321Z,17.43
2019-01-10T02:55:58.323Z,15.73
2019-01-10T03:00:59.902Z,18.57
2019-01-10T03:06:01.432Z,16.83
2019-01-10T03:11:02.982Z,21.33
2019-01-10T03:16:04.507Z,18.60
2019-01-10T03:21:06.045Z,18.20
2019-01-10T03:26:07.854Z,20.60
2019-01-10T03:31:09.720Z,24.77
2019-01-10T03:36:11.267Z,16.53
2019-01-10T03:41:13.168Z,13.40
2019-01-10T03:46:14.704Z,15.43
2019-01-10T03:51:16.575Z,11.90
2019-01-10T03:56:18.118Z,14.03
2019-01-10T04:01:19.663Z,10.83
2019-01-10T04:06:21.172Z,11.70
2019-01-10T04:11:22.743Z,13.80
2019-01-10T04:16:24.251Z,10.77
2019-01-10T04:21:25.807Z,18.80
2019-01-10T04:26:27.301Z,14.83
2019-01-10T04:31:28.873Z,19.43
2019-01-10T04:36:30.401Z,16.13
2019-01-10T04:41:31.997Z,18.13
2019-01-10T04:46:33.500Z,14.93
2019-01-10T04:51:35.042Z,19.40
2019-01-10T04:56:36.616Z,19.93
2019-01-10T05:01:38.142Z,9.53
2019-01-10T05:06:41.739Z,18.93
2019-01-10T05:11:43.248Z,13.90
2019-01-10T05:16:44.801Z,11.70
2019-01-10T05:21:46.455Z,15.90
2019-01-10T05:26:48.409Z,9.93
2019-01-10T05:31:50.007Z,18.33
2019-01-10T05:36:51.562Z,21.87
2019-01-10T05:41:53.471Z,17.50
2019-01-10T05:46:55.046Z,18.07
2019-01-10T05:51:56.634Z,13.57
2019-01-10T05:56:58.191Z,14.63
2019-01-10T06:01:59.739Z,14.43
2019-01-10T06:07:01.293Z,11.13
2019-01-10T06:12:03.656Z,17.93
2019-01-10T06:17:05.223Z,10.20
2019-01-10T06:22:07.085Z,15.17
2019-01-10T06:27:08.668Z,19.00
2019-01-10T06:32:10.365Z,29.57
2019-01-10T06:37:12.718Z,19.17
2019-01-10T06:42:14.601Z,25.77
2019-01-10T06:47:16.591Z,25.33
2019-01-10T06:52:18.466Z,18.93
2019-01-10T06:57:20.053Z,16.60
2019-01-10T07:02:21.631Z,16.30
2019-01-10T07:07:23.397Z,21.43
2019-01-10T07:12:24.948Z,15.50
2019-01-10T07:17:26.548Z,24.77
2019-01-10T07:22:28.293Z,19.77
2019-01-10T07:27:29.819Z,17.70
2019-01-10T07:32:31.526Z,15.93
2019-01-10T07:37:33.114Z,15.40
2019-01-10T07:42:34.661Z,15.57
2019-01-10T07:47:36.635Z,17.33
2019-01-10T07:52:38.194Z,15.60
2019-01-10T07:57:40.101Z,9.70
2019-01-10T08:02:41.881Z,23.35
2019-01-10T08:07:43.481Z,18.43
2019-01-10T08:12:45.001Z,18.17
2019-01-10T08:17:46.535Z,21.63
2019-01-10T08:22:48.571Z,13.13
2019-01-10T08:27:50.496Z,14.17
2019-01-10T08:32:52.061Z,14.10
2019-01-10T08:37:53.580Z,20.20
2019-01-10T08:42:55.541Z,16.77
2019-01-10T08:47:57.127Z,17.47
2019-01-10T08:52:58.718Z,24.47
2019-01-10T08:58:00.273Z,20.73
2019-01-10T09:03:01.778Z,19.80
2019-01-10T09:08:03.415Z,23.23
2019-01-10T09:13:04.986Z,13.80
2019-01-10T09:18:06.589Z,18.43
2019-01-10T09:23:08.220Z,14.57
2019-01-10T09:28:09.921Z,23.03
2019-01-10T09:33:11.442Z,21.33
2019-01-10T09:38:12.982Z,16.83
2019-01-10T09:43:14.572Z,25.40
2019-01-10T09:48:16.126Z,12.27
2019-01-10T09:53:17.683Z,31.03
2019-01-10T09:58:19.530Z,22.47
2019-01-10T10:03:21.103Z,19.70
2019-01-10T10:08:22.768Z,35.80
2019-01-10T10:13:24.355Z,25.47
2019-01-10T10:18:26.020Z,29.10
2019-01-10T10:23:27.588Z,29.53
2019-01-10T10:28:29.153Z,22.40
2019-01-10T10:33:30.754Z,35.37
2019-01-10T10:38:32.318Z,23.83
2019-01-10T10:43:34.503Z,23.63
2019-01-10T10:48:36.108Z,22.47
2019-01-10T10:53:37.727Z,21.93
2019-01-10T10:58:39.271Z,25.07
2019-01-10T11:03:40.858Z,30.87
2019-01-10T11:08:44.564Z,33.17
2019-01-10T11:13:45.899Z,26.63
2019-01-10T11:18:47.428Z,23.97
2019-01-10T11:23:48.983Z,24.27
2019-01-10T11:28:50.524Z,21.47
2019-01-10T11:33:52.373Z,24.20
2019-01-10T11:38:53.963Z,20.63
2019-01-10T11:43:55.521Z,23.13
2019-01-10T11:48:57.091Z,16.60
2019-01-10T11:53:59.743Z,17.07
2019-01-10T11:59:01.287Z,14.30
2019-01-10T12:04:02.835Z,18.50
2019-01-10T12:09:05.619Z,24.03
2019-01-10T12:14:07.267Z,18.10
2019-01-10T12:19:08.772Z,24.90
2019-01-10T12:24:10.354Z,15.10
2019-01-10T12:29:11.929Z,17.73
2019-01-10T12:34:13.593Z,16.53
2019-01-10T12:39:15.531Z,26.10
2019-01-10T12:44:17.128Z,19.07
2019-01-10T12:49:18.696Z,20.67
2019-01-10T12:54:21.875Z,16.90
2019-01-10T12:59:23.715Z,13.50
2019-01-10T13:04:25.590Z,14.60
2019-01-10T13:09:28.350Z,13.63
2019-01-10T13:14:29.933Z,15.33
2019-01-10T13:19:33.215Z,13.87
2019-01-10T13:24:34.767Z,23.20
2019-01-10T13:29:36.612Z,12.90
2019-01-10T13:34:38.160Z,15.80
2019-01-10T13:39:39.837Z,17.60
2019-01-10T13:44:41.376Z,20.30
2019-01-10T13:49:42.999Z,20.20
2019-01-10T13:54:45.154Z,15.00
2019-01-10T13:59:46.657Z,21.23
2019-01-10T14:04:48.239Z,16.30
2019-01-10T14:09:49.821Z,14.13
2019-01-10T14:14:51.355Z,16.80
2019-01-10T14:19:52.879Z,9.20
2019-01-10T14:24:54.872Z,14.07
2019-01-10T14:29:56.392Z,19.37
2019-01-10T14:34:58.043Z,9.53
2019-01-10T14:39:59.631Z,21.07
2019-01-10T14:45:01.206Z,16.63
2019-01-10T14:50:03.795Z,13.97
2019-01-10T14:55:07.098Z,17.43
2019-01-10T15:00:12.365Z,11.83
2019-01-10T15:05:13.902Z,22.67
2019-01-10T15:10:15.454Z,16.23
2019-01-10T15:15:18.739Z,18.77
2019-01-10T15:20:28.440Z,22.17
2019-01-10T15:25:30.002Z,19.07
2019-01-10T15:30:31.567Z,18.23
2019-01-10T15:35:33.523Z,20.63
2019-01-10T15:40:35.049Z,21.10
2019-01-10T15:45:36.898Z,13.23
2019-01-10T15:50:38.435Z,23.03
2019-01-10T15:55:40.354Z,17.97
2019-01-10T16:00:41.892Z,16.80
2019-01-10T16:05:43.810Z,23.02
2019-01-10T16:10:45.708Z,16.13
2019-01-10T16:15:47.614Z,16.23
2019-01-10T16:20:49.186Z,16.53
2019-01-10T16:25:50.750Z,20.87
2019-01-10T16:30:52.279Z,15.93
2019-01-10T16:35:53.936Z,17.57
2019-01-10T16:40:55.634Z,13.73
2019-01-10T16:45:57.225Z,21.23
2019-01-10T16:51:01.209Z,18.77
2019-01-10T16:56:02.776Z,10.63
2019-01-10T17:01:04.416Z,10.20
2019-01-10T17:06:06.023Z,11.63
2019-01-10T17:11:07.656Z,15.57
2019-01-10T17:16:09.289Z,18.17
2019-01-10T17:21:11.092Z,11.23
2019-01-10T17:26:12.632Z,10.43
2019-01-10T17:31:14.257Z,9.03
2019-01-10T17:36:18.494Z,9.30
2019-01-10T17:41:19.983Z,7.03
2019-01-10T17:46:21.889Z,5.60
2019-01-10T17:51:23.789Z,7.37
2019-01-10T17:56:25.427Z,7.97
2019-01-10T18:01:27.043Z,6.00
2019-01-10T18:06:28.601Z,11.43
2019-01-10T18:11:30.193Z,13.90
2019-01-10T18:16:31.766Z,9.83
2019-01-10T18:21:33.338Z,6.73
2019-01-10T18:26:35.663Z,11.77
2019-01-10T18:31:37.334Z,10.37
2019-01-10T18:36:38.988Z,8.87
2019-01-10T18:41:40.688Z,20.50
2019-01-10T18:46:42.228Z,14.60
2019-01-10T18:51:43.870Z,17.23
2019-01-10T18:56:45.980Z,16.50
2019-01-10T19:01:47.631Z,23.77
2019-01-10T19:06:49.181Z,18.07
2019-01-10T19:11:50.828Z,12.87
2019-01-10T19:16:52.385Z,13.37
2019-01-10T19:21:54.259Z,18.50
2019-01-10T19:26:55.904Z,11.63
2019-01-10T19:31:57.564Z,13.70
2019-01-10T19:36:59.145Z,16.13
2019-01-10T19:42:01.467Z,15.83
2019-01-10T19:47:02.995Z,12.67
2019-01-10T19:52:05.063Z,12.77
2019-01-10T19:57:06.789Z,12.73
2019-01-10T20:02:08.634Z,14.87
2019-01-10T20:07:10.353Z,12.40
2019-01-10T20:12:11.952Z,10.87
2019-01-10T20:17:13.516Z,15.23
2019-01-10T20:22:15.422Z,11.70
2019-01-10T20:27:16.989Z,12.67
2019-01-10T20:32:18.860Z,20.07
2019-01-10T20:37:20.623Z,15.93
2019-01-10T20:42:22.199Z,16.17
2019-01-10T20:47:23.809Z,20.17
2019-01-10T20:52:25.468Z,19.17
2019-01-10T20:57:29.071Z,22.80
2019-01-10T21:02:31.699Z,21.20
2019-01-10T21:07:33.345Z,19.00
2019-01-10T21:12:36.073Z,25.43
2019-01-10T21:17:37.805Z,22.73
2019-01-10T21:22:39.446Z,24.40
2019-01-10T21:27:41.013Z,24.90
2019-01-10T21:32:42.669Z,24.63
2019-01-10T21:37:44.284Z,24.40
2019-01-10T21:42:45.836Z,24.53
2019-01-10T21:47:47.437Z,24.33
2019-01-10T21:52:48.974Z,21.40
2019-01-10T21:57:50.598Z,21.70
2019-01-10T22:02:52.154Z,28.00
2019-01-10T22:07:53.731Z,21.17
2019-01-10T22:12:56.019Z,23.90
2019-01-10T22:17:57.852Z,25.80
2019-01-10T22:22:59.420Z,32.83
2019-01-10T22:28:00.953Z,39.97
2019-01-10T22:33:02.535Z,34.30
2019-01-10T22:38:04.081Z,31.63
2019-01-10T22:43:05.607Z,42.07
2019-01-10T22:48:07.159Z,40.87
2019-01-10T22:53:08.797Z,39.33
2019-01-10T22:58:10.729Z,37.97
2019-01-10T23:03:12.548Z,44.27
2019-01-10T23:08:14.136Z,45.27
2019-01-10T23:13:15.697Z,40.50
2019-01-10T23:18:17.231Z,40.20
2019-01-10T23:23:18.773Z,39.37
2019-01-10T23:28:20.531Z,48.77
2019-01-10T23:33:22.093Z,43.20
2019-01-10T23:38:23.993Z,39.47
2019-01-10T23:43:26.754Z,41.80
2019-01-10T23:48:28.570Z,41.03
2019-01-10T23:53:31.283Z,34.33
2019-01-10T23:58:32.839Z,40.43
